Etusivu
METAR-TAF:

METAR-TAF

Lentoasemat :

Visalia Municipal Airport

Visalia, Kalifornia, Yhdysvallat

Leveyspiiri: 36-19N, Pituuspiiri: 119-24W, korkeus merenpinnasta: 89 m

Tämänhetkinen sää

Tämä raportti tehtiin 36 minuuttia sitten, kello 03.56 UTC
Tuuli 6 kn lännestä
Lämpötila 20°C
Kosteus 56%
Ilmanpaine 1013 hPa
Näkyvyys: 16.1 km
selkeää

METAR: KVIS 310356Z AUTO 27006KT 10SM CLR 20/11 A2992 RMK AO2 SLP139 T02000111

Aika: 21:32 (04:32 UTC)

Sääennuste

Tämä raportti tehtiin 5 tuntia ja 12 minuuttia sitten, kello 23.20 UTC
Ennuste voimassa 31. päivästä klo 00 UTC - 31. päivään klo 24 UTC
Tuuli 7 kn lännestä
Näkyvyys: 10 km
Hajanaisia pilviä 6000 ft:n korkeudessa
Hajonneita pilviä 12000 ft:n korkeudessa
From 31. päivästä klo 0600 UTC
Tuuli 8 kn lännestä/luoteesta
Näkyvyys: 10 km
Hajanaisia pilviä 25000 ft:n korkeudessa

TAF: KVIS 302320Z 3100/3124 26007KT P6SM SCT060 BKN120 FM310600 30008KT P6SM SCT250

Säähavainnot ja -ennusteet yli 4000 lentoasemalta (METAR- ja TAF-raportit).

Käytössä olevat sääasemat on merkitty karttaan keltaisilla ja punaisilla pisteillä.

Aseta hiiri pisteen päälle nähdäksesi sääaseman nimen.

Klikkaa sitten nähdäksesi säähavainnot ja -ennusteet.

Kartan vaihtaminen: klikkaa mustalla rastilla varustettuja vihreitä pisteitä, niin voit zoomata sisään; viivalla varustettua vihreää pistettä, niin voit zoomata ulos tai vihreitä nuolia, niin pääset viereisille kartoille.


METAR-TAF: